createdAt,value
2022-09-15T00:03:21.781Z,15.64
2022-09-15T00:08:25.736Z,15.61
2022-09-15T00:13:29.146Z,15.61
2022-09-15T00:18:34.110Z,15.59
2022-09-15T00:23:38.414Z,15.59
2022-09-15T00:28:42.918Z,15.60
2022-09-15T00:33:48.743Z,15.54
2022-09-15T00:38:54.984Z,15.58
2022-09-15T00:44:00.846Z,15.56
2022-09-15T00:49:18.117Z,15.53
2022-09-15T00:54:32.230Z,15.52
2022-09-15T00:59:38.114Z,15.50
2022-09-15T01:04:41.739Z,15.44
2022-09-15T01:10:15.208Z,15.40
2022-09-15T01:15:18.731Z,15.38
2022-09-15T01:20:45.036Z,15.37
2022-09-15T01:25:57.328Z,15.37
2022-09-15T01:31:13.122Z,15.38
2022-09-15T01:36:25.403Z,15.39
2022-09-15T01:41:55.983Z,15.40
2022-09-15T01:47:03.271Z,15.37
2022-09-15T01:52:08.381Z,15.34
2022-09-15T01:57:12.567Z,15.31
2022-09-15T02:02:29.826Z,15.28
2022-09-15T02:08:15.870Z,15.25
2022-09-15T02:13:54.351Z,15.22
2022-09-15T02:19:20.530Z,15.18
2022-09-15T02:24:30.870Z,15.13
2022-09-15T02:29:37.402Z,15.10
2022-09-15T02:34:47.182Z,15.09
2022-09-15T02:39:55.098Z,15.06
2022-09-15T02:45:00.321Z,15.05
2022-09-15T02:50:04.524Z,15.03
2022-09-15T02:55:08.198Z,14.99
2022-09-15T03:00:16.747Z,14.89
2022-09-15T03:05:22.668Z,14.71
2022-09-15T03:10:26.551Z,14.50
2022-09-15T03:15:29.692Z,14.37
2022-09-15T03:20:33.509Z,14.29
2022-09-15T03:25:36.955Z,14.18
2022-09-15T03:30:40.828Z,14.09
2022-09-15T03:35:48.096Z,14.04
2022-09-15T03:41:10.856Z,13.99
2022-09-15T03:46:22.737Z,13.93
2022-09-15T03:51:29.210Z,13.90
2022-09-15T03:56:33.180Z,13.89
2022-09-15T04:01:36.360Z,13.84
2022-09-15T04:06:39.683Z,13.77
2022-09-15T04:11:53.857Z,13.67
2022-09-15T04:16:58.105Z,13.65
2022-09-15T04:22:01.304Z,13.62
2022-09-15T04:27:04.720Z,13.61
2022-09-15T04:32:08.708Z,13.59
2022-09-15T04:37:12.538Z,13.60
2022-09-15T04:42:15.786Z,13.60
2022-09-15T04:47:19.735Z,13.59
2022-09-15T04:52:22.903Z,13.56
2022-09-15T04:57:26.164Z,13.51
2022-09-15T05:02:29.532Z,13.51
2022-09-15T05:07:32.866Z,13.50
2022-09-15T05:12:36.042Z,13.55
2022-09-15T05:17:39.537Z,13.59
2022-09-15T05:22:42.976Z,13.63
2022-09-15T05:27:46.142Z,13.73
2022-09-15T05:32:49.343Z,13.80
2022-09-15T05:37:54.765Z,13.94
2022-09-15T05:42:59.556Z,14.06
2022-09-15T05:48:04.389Z,14.18
2022-09-15T05:53:08.885Z,14.27
2022-09-15T05:58:12.538Z,14.37
2022-09-15T06:03:17.188Z,14.44
2022-09-15T06:08:21.047Z,14.53
2022-09-15T06:13:24.426Z,14.71
2022-09-15T06:18:27.802Z,15.07
2022-09-15T06:23:31.109Z,15.33
2022-09-15T06:28:34.304Z,15.25
2022-09-15T06:33:37.574Z,15.02
2022-09-15T06:38:41.971Z,14.87
2022-09-15T06:43:45.981Z,14.93
2022-09-15T06:48:49.479Z,15.21
2022-09-15T06:53:54.007Z,15.32
2022-09-15T06:58:57.213Z,15.40
2022-09-15T07:04:10.527Z,15.38
2022-09-15T07:09:13.964Z,15.46
2022-09-15T07:14:17.589Z,15.56
2022-09-15T07:19:21.427Z,15.76
2022-09-15T07:24:24.814Z,15.66
2022-09-15T07:29:27.963Z,15.78
2022-09-15T07:34:31.288Z,16.01
2022-09-15T07:39:34.450Z,16.15
2022-09-15T07:44:37.702Z,16.08
2022-09-15T07:49:41.230Z,15.99
2022-09-15T07:54:46.274Z,16.15
2022-09-15T07:59:49.525Z,16.25
2022-09-15T08:04:53.397Z,16.54
2022-09-15T08:09:56.585Z,16.81
2022-09-15T08:14:59.758Z,17.27
2022-09-15T08:20:04.009Z,17.59
2022-09-15T08:25:07.403Z,17.39
2022-09-15T08:30:11.548Z,17.62
2022-09-15T08:35:17.003Z,17.82
2022-09-15T08:40:24.705Z,17.98
2022-09-15T08:45:32.819Z,17.86
2022-09-15T08:50:39.916Z,17.98
2022-09-15T08:55:53.596Z,18.13
2022-09-15T09:01:36.795Z,18.83
2022-09-15T09:06:43.338Z,18.98
2022-09-15T09:12:01.945Z,18.95
2022-09-15T09:17:08.257Z,18.86
2022-09-15T09:22:15.820Z,18.91
2022-09-15T09:27:25.618Z,19.23
2022-09-15T09:32:51.668Z,19.44
2022-09-15T09:38:01.339Z,19.53
2022-09-15T09:43:06.189Z,19.43
2022-09-15T09:48:20.608Z,19.13
2022-09-15T09:53:32.351Z,19.16
2022-09-15T09:58:37.583Z,19.38
2022-09-15T10:03:42.126Z,19.87
2022-09-15T10:08:58.721Z,20.29
2022-09-15T10:14:02.280Z,20.41
2022-09-15T10:19:12.733Z,20.16
2022-09-15T10:24:34.925Z,20.53
2022-09-15T10:29:40.466Z,20.42
2022-09-15T10:34:49.125Z,19.94
2022-09-15T10:39:54.812Z,19.32
2022-09-15T10:45:11.323Z,18.89
2022-09-15T10:50:21.585Z,18.73
2022-09-15T10:55:54.859Z,18.69
2022-09-15T11:01:16.885Z,18.67
2022-09-15T11:06:33.264Z,18.90
2022-09-15T11:11:48.423Z,19.14
2022-09-15T11:17:28.402Z,19.49
2022-09-15T11:22:37.681Z,19.44
2022-09-15T11:27:45.357Z,19.68
2022-09-15T11:32:58.949Z,19.93
2022-09-15T11:38:36.296Z,20.04
2022-09-15T11:44:02.300Z,19.86
2022-09-15T11:49:16.295Z,19.80
2022-09-15T11:54:34.429Z,19.98
2022-09-15T11:59:58.803Z,20.08
2022-09-15T12:05:16.239Z,20.16
2022-09-15T12:10:24.887Z,20.42
2022-09-15T12:15:28.387Z,20.77
2022-09-15T12:20:37.894Z,20.76
2022-09-15T12:26:19.407Z,20.63
2022-09-15T12:31:37.597Z,20.43
2022-09-15T12:37:09.088Z,20.23
2022-09-15T12:42:25.519Z,20.13
2022-09-15T12:47:35.545Z,20.08
2022-09-15T12:52:51.814Z,19.82
2022-09-15T12:58:02.911Z,19.68
2022-09-15T13:03:28.666Z,19.60
2022-09-15T13:08:31.924Z,19.55
2022-09-15T13:13:56.262Z,19.56
2022-09-15T13:19:30.054Z,19.64
2022-09-15T13:25:01.389Z,19.73
2022-09-15T13:30:43.453Z,19.96
2022-09-15T13:35:52.819Z,20.32
2022-09-15T13:41:24.020Z,20.56
2022-09-15T13:46:49.367Z,20.64
2022-09-15T13:52:22.711Z,20.51
2022-09-15T14:02:52.914Z,19.36
2022-09-15T14:08:04.441Z,18.99
2022-09-15T14:13:07.816Z,18.67
2022-09-15T14:18:20.296Z,18.45
2022-09-15T14:23:26.677Z,18.27
2022-09-15T14:28:32.818Z,18.06
2022-09-15T14:33:42.522Z,17.92
2022-09-15T14:39:17.192Z,17.98
2022-09-15T14:50:20.498Z,18.31
2022-09-15T14:55:35.709Z,18.44
2022-09-15T15:00:53.985Z,18.53
2022-09-15T15:06:29.563Z,18.61
2022-09-15T15:11:42.315Z,18.75
2022-09-15T15:17:27.760Z,18.67
2022-09-15T15:22:38.797Z,18.44
2022-09-15T15:27:57.354Z,18.38
2022-09-15T15:33:15.110Z,18.34
2022-09-15T15:38:28.027Z,18.43
2022-09-15T15:43:39.036Z,18.28
2022-09-15T15:48:42.506Z,18.06
2022-09-15T15:53:46.021Z,17.81
2022-09-15T15:58:49.143Z,17.55
2022-09-15T16:04:03.365Z,17.30
2022-09-15T16:09:07.253Z,17.19
2022-09-15T16:14:14.889Z,17.05
2022-09-15T16:19:25.035Z,16.84
2022-09-15T16:24:29.430Z,16.69
2022-09-15T16:29:36.447Z,16.55
2022-09-15T16:34:40.114Z,16.40
2022-09-15T16:39:48.820Z,16.30
2022-09-15T16:45:02.879Z,16.21
2022-09-15T16:50:07.582Z,16.10
2022-09-15T16:55:19.404Z,16.04
2022-09-15T17:00:25.440Z,15.96
2022-09-15T17:05:39.959Z,15.87
2022-09-15T17:10:55.359Z,15.74
2022-09-15T17:16:03.046Z,15.63
2022-09-15T17:21:13.593Z,15.54
2022-09-15T17:26:27.628Z,15.39
2022-09-15T17:31:39.174Z,15.17
2022-09-15T17:36:42.680Z,14.97
2022-09-15T17:41:49.683Z,14.81
2022-09-15T17:46:53.627Z,14.69
2022-09-15T17:51:57.025Z,14.56
2022-09-15T17:57:00.460Z,14.43
2022-09-15T18:02:04.486Z,14.34
2022-09-15T18:07:20.660Z,14.24
2022-09-15T18:12:28.865Z,14.15
2022-09-15T18:17:32.789Z,14.05
2022-09-15T18:22:45.818Z,14.01
2022-09-15T18:28:02.264Z,14.01
2022-09-15T18:33:06.019Z,14.02
2022-09-15T18:38:15.519Z,13.97
2022-09-15T18:43:28.916Z,13.93
2022-09-15T18:48:38.146Z,13.88
2022-09-15T18:53:54.242Z,13.89
2022-09-15T18:59:09.922Z,13.85
2022-09-15T19:04:19.995Z,13.75
2022-09-15T19:09:30.572Z,13.67
2022-09-15T19:14:49.631Z,13.56
2022-09-15T19:20:35.935Z,13.48
2022-09-15T19:25:50.882Z,13.40
2022-09-15T19:31:00.039Z,13.31
2022-09-15T19:36:27.550Z,13.19
2022-09-15T19:41:39.089Z,13.05
2022-09-15T19:46:46.346Z,12.94
2022-09-15T19:51:55.618Z,12.80
2022-09-15T19:57:13.860Z,12.70
2022-09-15T20:02:23.583Z,12.63
2022-09-15T20:07:28.130Z,12.56
2022-09-15T20:12:35.326Z,12.50
2022-09-15T20:17:49.274Z,12.45
2022-09-15T20:22:54.583Z,12.40
2022-09-15T20:28:09.147Z,12.32
2022-09-15T20:33:28.528Z,12.27
2022-09-15T20:38:40.998Z,12.24
2022-09-15T20:43:55.319Z,12.28
2022-09-15T20:49:21.959Z,12.30
2022-09-15T20:54:26.086Z,12.38
2022-09-15T20:59:36.309Z,12.41
2022-09-15T21:04:58.719Z,12.45
2022-09-15T21:10:05.808Z,12.44
2022-09-15T21:15:09.720Z,12.44
2022-09-15T21:20:13.956Z,12.43
2022-09-15T21:25:20.366Z,12.37
2022-09-15T21:30:24.040Z,12.30
2022-09-15T21:35:27.447Z,12.21
2022-09-15T21:40:33.141Z,12.08
2022-09-15T21:45:42.679Z,11.96
2022-09-15T21:50:51.160Z,11.88
2022-09-15T21:55:55.127Z,11.80
2022-09-15T22:00:58.478Z,11.76
2022-09-15T22:06:02.157Z,11.69
2022-09-15T22:11:07.477Z,11.63
2022-09-15T22:16:19.217Z,11.58
2022-09-15T22:21:26.814Z,11.58
2022-09-15T22:26:32.515Z,11.51
2022-09-15T22:31:37.614Z,11.45
2022-09-15T22:36:42.053Z,11.39
2022-09-15T22:41:45.807Z,11.36
2022-09-15T22:46:58.204Z,11.41
2022-09-15T22:52:03.284Z,11.50
2022-09-15T22:57:07.480Z,11.64
2022-09-15T23:02:11.237Z,11.70
2022-09-15T23:07:15.121Z,11.78
2022-09-15T23:12:25.195Z,11.90
2022-09-15T23:17:29.895Z,12.02
2022-09-15T23:22:33.146Z,12.08
2022-09-15T23:27:37.246Z,12.15
2022-09-15T23:32:43.066Z,12.21
2022-09-15T23:37:48.083Z,12.26
2022-09-15T23:42:53.440Z,12.30
2022-09-15T23:47:56.743Z,12.36
2022-09-15T23:53:00.172Z,12.41
2022-09-15T23:58:05.142Z,12.38
